createdAt,value
2022-11-05T00:00:44.852Z,16.55
2022-11-05T00:02:05.554Z,16.40
2022-11-05T00:03:26.974Z,13.68
2022-11-05T00:04:47.277Z,12.52
2022-11-05T00:06:10.158Z,12.10
2022-11-05T00:07:33.571Z,16.70
2022-11-05T00:08:55.854Z,17.95
2022-11-05T00:10:03.608Z,16.33
2022-11-05T00:11:06.348Z,13.80
2022-11-05T00:12:30.190Z,21.35
2022-11-05T00:13:50.309Z,11.10
2022-11-05T00:15:11.003Z,10.88
2022-11-05T00:16:31.409Z,17.70
2022-11-05T00:17:34.630Z,13.35
2022-11-05T00:18:36.642Z,12.13
2022-11-05T00:19:39.554Z,10.38
2022-11-05T00:20:41.464Z,14.02
2022-11-05T00:22:01.735Z,18.05
2022-11-05T00:23:23.609Z,15.15
2022-11-05T00:24:45.434Z,16.70
2022-11-05T00:25:56.101Z,17.30
2022-11-05T00:26:57.978Z,17.00
2022-11-05T00:28:03.018Z,16.08
2022-11-05T00:29:05.292Z,11.95
2022-11-05T00:30:09.325Z,14.02
2022-11-05T00:31:14.774Z,16.85
2022-11-05T00:32:17.073Z,12.82
2022-11-05T00:33:19.986Z,17.92
2022-11-05T00:34:22.028Z,14.25
2022-11-05T00:35:24.989Z,17.20
2022-11-05T00:36:26.873Z,21.50
2022-11-05T00:37:30.052Z,12.75
2022-11-05T00:38:33.524Z,12.15
2022-11-05T00:39:36.791Z,16.67
2022-11-05T00:40:39.815Z,14.85
2022-11-05T00:41:41.919Z,13.75
2022-11-05T00:43:02.562Z,13.45
2022-11-05T00:44:22.918Z,16.45
2022-11-05T00:45:25.934Z,19.60
2022-11-05T00:46:27.871Z,16.27
2022-11-05T00:47:48.938Z,11.75
2022-11-05T00:49:09.150Z,18.00
2022-11-05T00:50:12.199Z,12.20
2022-11-05T00:51:15.181Z,14.48
2022-11-05T00:52:38.212Z,16.58
2022-11-05T00:53:41.118Z,10.55
2022-11-05T00:54:44.448Z,17.63
2022-11-05T00:55:47.759Z,9.20
2022-11-05T00:56:49.742Z,11.30
2022-11-05T00:57:52.153Z,16.52
2022-11-05T00:58:56.649Z,17.50
2022-11-05T00:59:58.896Z,12.98
2022-11-05T01:01:02.949Z,16.45
2022-11-05T01:02:04.954Z,22.38
2022-11-05T01:03:10.467Z,18.50
2022-11-05T01:04:12.599Z,15.10
2022-11-05T01:05:15.830Z,17.17
2022-11-05T01:06:19.528Z,12.23
2022-11-05T01:07:21.501Z,16.92
2022-11-05T01:08:26.335Z,17.65
2022-11-05T01:09:28.369Z,13.82
2022-11-05T01:10:32.761Z,11.00
2022-11-05T01:11:37.119Z,12.68
2022-11-05T01:12:39.446Z,12.60
2022-11-05T01:13:42.489Z,13.90
2022-11-05T01:14:44.438Z,16.80
2022-11-05T01:15:48.498Z,17.70
2022-11-05T01:16:50.415Z,24.30
2022-11-05T01:17:53.550Z,17.30
2022-11-05T01:18:55.491Z,14.63
2022-11-05T01:19:58.431Z,15.73
2022-11-05T01:21:00.396Z,12.93
2022-11-05T01:22:03.342Z,10.93
2022-11-05T01:23:10.296Z,19.45
2022-11-05T01:24:16.087Z,13.77
2022-11-05T01:25:18.335Z,14.73
2022-11-05T01:26:22.780Z,18.55
2022-11-05T01:27:24.687Z,11.57
2022-11-05T01:28:27.703Z,18.52
2022-11-05T01:29:29.621Z,13.35
2022-11-05T01:30:33.147Z,22.00
2022-11-05T01:31:35.016Z,16.38
2022-11-05T01:32:38.583Z,15.10
2022-11-05T01:33:40.502Z,14.82
2022-11-05T01:34:43.529Z,13.10
2022-11-05T01:35:46.609Z,18.77
2022-11-05T01:36:48.628Z,12.63
2022-11-05T01:37:51.585Z,13.70
2022-11-05T01:38:53.663Z,18.83
2022-11-05T01:39:56.934Z,16.45
2022-11-05T01:40:59.908Z,14.57
2022-11-05T01:42:04.818Z,19.80
2022-11-05T01:43:14.441Z,12.70
2022-11-05T01:44:54.182Z,17.80
2022-11-05T01:45:59.652Z,12.57
2022-11-05T01:47:01.760Z,13.48
2022-11-05T01:48:10.130Z,17.30
2022-11-05T01:49:21.310Z,14.50
2022-11-05T01:50:30.837Z,16.00
2022-11-05T01:51:34.207Z,20.95
2022-11-05T01:52:36.435Z,20.55
2022-11-05T01:53:44.203Z,15.07
2022-11-05T01:54:47.106Z,18.70
2022-11-05T01:55:56.385Z,12.88
2022-11-05T01:57:01.959Z,15.85
2022-11-05T01:58:08.479Z,15.45
2022-11-05T01:59:15.444Z,19.90
2022-11-05T02:00:17.780Z,13.68
2022-11-05T02:01:21.446Z,13.45
2022-11-05T02:02:25.421Z,19.80
2022-11-05T02:03:29.568Z,17.45
2022-11-05T02:04:35.654Z,16.95
2022-11-05T02:05:41.082Z,16.15
2022-11-05T02:06:46.456Z,18.58
2022-11-05T02:07:50.047Z,13.88
2022-11-05T02:08:57.390Z,13.15
2022-11-05T02:10:03.426Z,18.67
2022-11-05T02:11:05.747Z,16.55
2022-11-05T02:12:10.769Z,23.25
2022-11-05T02:13:14.176Z,19.25
2022-11-05T02:14:20.694Z,12.43
2022-11-05T02:15:36.033Z,12.63
2022-11-05T02:16:42.403Z,11.88
2022-11-05T02:17:55.432Z,16.42
2022-11-05T02:19:08.282Z,14.65
2022-11-05T02:20:26.174Z,19.63
2022-11-05T02:21:59.622Z,15.38
2022-11-05T02:23:53.270Z,13.65
2022-11-05T02:25:11.049Z,15.98
2022-11-05T02:26:56.974Z,22.17
2022-11-05T02:28:18.157Z,13.45
2022-11-05T02:29:50.569Z,13.80
2022-11-05T02:31:00.949Z,15.98
2022-11-05T02:32:09.006Z,11.38
2022-11-05T02:33:28.413Z,15.30
2022-11-05T02:34:42.220Z,8.60
2022-11-05T02:36:01.445Z,13.90
2022-11-05T02:37:14.084Z,16.55
2022-11-05T02:38:22.369Z,16.98
2022-11-05T02:39:35.405Z,12.93
2022-11-05T02:40:50.013Z,17.02
2022-11-05T02:42:05.128Z,16.10
2022-11-05T02:43:16.923Z,13.77
2022-11-05T02:44:26.895Z,15.77
2022-11-05T02:45:41.548Z,15.50
2022-11-05T02:46:56.372Z,17.00
2022-11-05T02:48:06.457Z,13.43
2022-11-05T02:49:18.882Z,10.07
2022-11-05T02:50:27.968Z,12.52
2022-11-05T02:51:35.328Z,14.88
2022-11-05T02:52:43.760Z,13.40
2022-11-05T02:53:51.020Z,20.35
2022-11-05T02:54:58.844Z,13.55
2022-11-05T02:56:06.639Z,11.88
2022-11-05T02:57:08.689Z,19.60
2022-11-05T02:58:11.625Z,12.45
2022-11-05T02:59:13.564Z,15.70
2022-11-05T03:00:41.850Z,17.23
2022-11-05T03:01:46.927Z,13.05
2022-11-05T03:02:50.223Z,15.95
2022-11-05T03:03:54.438Z,16.80
2022-11-05T03:04:57.507Z,17.20
2022-11-05T03:06:22.664Z,15.35
2022-11-05T03:07:48.965Z,12.15
2022-11-05T03:09:13.759Z,14.98
2022-11-05T03:10:34.684Z,23.20
2022-11-05T03:12:59.158Z,17.95
2022-11-05T03:14:11.095Z,13.93
2022-11-05T03:15:24.302Z,14.75
2022-11-05T03:16:32.770Z,16.80
2022-11-05T03:17:43.292Z,11.23
2022-11-05T03:18:50.785Z,10.90
2022-11-05T03:20:02.965Z,12.18
2022-11-05T03:21:11.299Z,16.80
2022-11-05T03:22:18.027Z,19.70
2022-11-05T03:23:27.753Z,13.25
2022-11-05T03:24:35.282Z,11.40
2022-11-05T03:25:41.520Z,12.25
2022-11-05T03:26:50.850Z,14.00
2022-11-05T03:27:57.772Z,18.13
2022-11-05T03:29:03.434Z,10.45
2022-11-05T03:30:08.043Z,25.95
2022-11-05T03:31:14.321Z,12.95
2022-11-05T03:32:20.576Z,13.48
2022-11-05T03:33:28.686Z,19.27
2022-11-05T03:34:35.444Z,18.98
2022-11-05T03:35:43.087Z,13.55
2022-11-05T03:36:48.399Z,12.90
2022-11-05T03:37:56.265Z,15.32
2022-11-05T03:39:03.702Z,15.20
2022-11-05T03:40:09.501Z,13.45
2022-11-05T03:41:16.670Z,14.70
2022-11-05T03:42:21.991Z,17.02
2022-11-05T03:43:31.226Z,12.23
2022-11-05T03:44:37.548Z,13.15
2022-11-05T03:45:45.180Z,13.90
2022-11-05T03:46:49.682Z,17.83
2022-11-05T03:47:57.562Z,17.40
2022-11-05T03:49:03.892Z,12.30
2022-11-05T03:50:15.554Z,11.85
2022-11-05T03:51:27.431Z,10.68
2022-11-05T03:52:37.304Z,18.20
2022-11-05T03:53:46.675Z,10.55
2022-11-05T03:54:49.922Z,15.38
2022-11-05T03:55:56.770Z,16.63
2022-11-05T03:57:04.323Z,17.67
2022-11-05T03:58:06.722Z,13.27
2022-11-05T03:59:11.817Z,17.42
2022-11-05T04:00:15.086Z,15.32
2022-11-05T04:01:18.121Z,16.92
2022-11-05T04:02:23.234Z,11.10
2022-11-05T04:03:26.257Z,20.02
2022-11-05T04:04:29.520Z,14.85
2022-11-05T04:05:32.497Z,16.70
2022-11-05T04:06:53.179Z,16.02
2022-11-05T04:08:14.643Z,15.95
2022-11-05T04:09:35.152Z,12.77
2022-11-05T04:10:55.298Z,16.60
2022-11-05T04:12:27.004Z,16.55
2022-11-05T04:13:30.227Z,14.45
2022-11-05T04:14:32.731Z,15.15
2022-11-05T04:15:56.223Z,9.15
2022-11-05T04:17:06.788Z,13.98
2022-11-05T04:18:08.721Z,15.73
2022-11-05T04:19:11.597Z,13.82
2022-11-05T04:20:39.012Z,15.55
2022-11-05T04:22:07.742Z,10.75
2022-11-05T04:23:28.601Z,13.52
2022-11-05T04:25:33.773Z,15.82
2022-11-05T04:26:37.368Z,14.65
2022-11-05T04:27:39.383Z,14.73
2022-11-05T04:28:56.179Z,16.77
2022-11-05T04:30:16.569Z,9.82
2022-11-05T04:31:19.462Z,14.15
2022-11-05T04:32:21.372Z,14.27
2022-11-05T04:33:24.284Z,17.42
2022-11-05T04:34:26.209Z,13.18
2022-11-05T04:35:32.361Z,16.67
2022-11-05T04:36:34.357Z,15.05
2022-11-05T04:37:37.245Z,15.52
2022-11-05T04:38:40.204Z,18.02
2022-11-05T04:39:42.105Z,14.55
2022-11-05T04:40:46.132Z,13.18
2022-11-05T04:41:48.742Z,13.40
2022-11-05T04:42:51.779Z,13.68
2022-11-05T04:43:53.680Z,12.82
2022-11-05T04:44:56.542Z,14.52
2022-11-05T04:45:58.466Z,14.52
2022-11-05T04:47:01.377Z,12.57
2022-11-05T04:48:05.449Z,10.85
2022-11-05T04:49:08.354Z,14.68
2022-11-05T04:50:12.071Z,12.57
2022-11-05T04:51:16.307Z,11.90
2022-11-05T04:52:19.211Z,14.23
2022-11-05T04:53:21.126Z,16.55
2022-11-05T04:54:23.999Z,14.23
2022-11-05T04:55:27.601Z,10.05
2022-11-05T04:56:29.543Z,11.93
2022-11-05T04:57:32.431Z,10.23
2022-11-05T04:58:34.288Z,10.57
2022-11-05T04:59:37.206Z,12.15
2022-11-05T05:00:40.239Z,10.80
2022-11-05T05:01:42.311Z,15.05
2022-11-05T05:02:45.414Z,12.10
2022-11-05T05:03:48.226Z,18.08
2022-11-05T05:04:51.254Z,16.98
2022-11-05T05:05:53.990Z,11.48
2022-11-05T05:06:58.499Z,12.93
2022-11-05T05:08:01.350Z,13.25
2022-11-05T05:09:04.496Z,12.82
2022-11-05T05:10:08.050Z,17.08
2022-11-05T05:11:17.716Z,11.32
2022-11-05T05:12:19.642Z,8.70
2022-11-05T05:13:22.527Z,13.10
2022-11-05T05:14:24.520Z,9.70
2022-11-05T05:15:27.504Z,11.95
2022-11-05T05:16:29.381Z,13.10
2022-11-05T05:17:32.362Z,12.25
2022-11-05T05:18:34.299Z,18.63
2022-11-05T05:19:51.074Z,12.00
2022-11-05T05:21:15.578Z,12.05
2022-11-05T05:22:19.787Z,13.93
2022-11-05T05:23:21.658Z,10.48
2022-11-05T05:24:24.984Z,16.65
2022-11-05T05:25:26.950Z,11.27
2022-11-05T05:26:30.011Z,11.73
2022-11-05T05:27:32.205Z,9.60
2022-11-05T05:28:35.144Z,10.40
2022-11-05T05:29:37.080Z,13.05
2022-11-05T05:30:40.026Z,11.50
2022-11-05T05:31:43.486Z,14.93
2022-11-05T05:32:45.412Z,11.30
2022-11-05T05:33:48.756Z,10.10
2022-11-05T05:34:51.105Z,11.60
2022-11-05T05:35:54.371Z,14.27
2022-11-05T05:36:56.308Z,13.68
2022-11-05T05:38:00.574Z,13.13
2022-11-05T05:39:05.079Z,17.10
2022-11-05T05:40:09.113Z,13.30
2022-11-05T05:41:11.080Z,12.13
2022-11-05T05:42:14.409Z,11.13
2022-11-05T05:43:16.746Z,16.05
2022-11-05T05:44:19.752Z,11.68
2022-11-05T05:45:21.707Z,15.68
2022-11-05T05:46:25.111Z,12.20
2022-11-05T05:47:27.016Z,14.20
2022-11-05T05:48:29.952Z,11.85
2022-11-05T05:49:32.265Z,14.18
2022-11-05T05:50:35.507Z,15.40
2022-11-05T05:51:42.127Z,14.30
2022-11-05T05:52:45.047Z,12.40
2022-11-05T05:53:48.429Z,13.98
2022-11-05T05:54:51.316Z,13.55
2022-11-05T05:55:53.561Z,11.98
2022-11-05T05:56:56.460Z,13.77
2022-11-05T05:57:58.404Z,12.23
2022-11-05T05:59:01.569Z,12.00
2022-11-05T06:00:05.413Z,11.07
2022-11-05T06:01:19.216Z,7.45
2022-11-05T06:02:22.874Z,12.55
2022-11-05T06:03:25.999Z,11.32
2022-11-05T06:04:27.964Z,11.63
2022-11-05T06:05:31.053Z,10.52
2022-11-05T06:06:33.174Z,8.77
2022-11-05T06:07:37.571Z,16.80
2022-11-05T06:08:41.288Z,13.35
2022-11-05T06:09:44.608Z,10.80
2022-11-05T06:10:52.269Z,13.63
2022-11-05T06:11:55.259Z,13.45
2022-11-05T06:12:59.280Z,14.45
2022-11-05T06:14:02.232Z,11.73
2022-11-05T06:15:04.831Z,15.30
2022-11-05T06:16:09.403Z,10.55
2022-11-05T06:17:11.352Z,12.50
2022-11-05T06:18:14.218Z,15.77
2022-11-05T06:19:17.193Z,11.15
2022-11-05T06:20:19.162Z,11.10
2022-11-05T06:21:22.157Z,11.27
2022-11-05T06:22:24.676Z,14.82
2022-11-05T06:23:27.574Z,11.60
2022-11-05T06:24:29.458Z,12.23
2022-11-05T06:25:37.172Z,13.82
2022-11-05T06:26:43.406Z,16.85
2022-11-05T06:27:46.299Z,12.23
2022-11-05T06:28:49.377Z,11.05
2022-11-05T06:29:51.286Z,11.55
2022-11-05T06:30:54.219Z,12.82
2022-11-05T06:31:56.136Z,11.95
2022-11-05T06:33:03.668Z,15.35
2022-11-05T06:34:05.535Z,9.90
2022-11-05T06:35:09.101Z,13.98
2022-11-05T06:36:17.176Z,13.68
2022-11-05T06:37:19.142Z,11.55
2022-11-05T06:38:22.239Z,13.35
2022-11-05T06:39:24.177Z,12.32
2022-11-05T06:40:27.492Z,9.82
2022-11-05T06:41:32.324Z,12.32
2022-11-05T06:42:37.337Z,10.75
2022-11-05T06:43:40.671Z,12.30
2022-11-05T06:44:42.540Z,8.27
2022-11-05T06:45:45.422Z,13.55
2022-11-05T06:46:48.704Z,8.98
2022-11-05T06:47:56.927Z,9.80
2022-11-05T06:48:59.307Z,14.00
2022-11-05T06:50:02.193Z,12.82
2022-11-05T06:51:05.055Z,10.10
2022-11-05T06:52:08.071Z,10.15
2022-11-05T06:53:10.155Z,12.38
2022-11-05T06:54:13.426Z,10.73
2022-11-05T06:55:15.451Z,15.07
2022-11-05T06:56:18.370Z,15.13
2022-11-05T06:57:21.730Z,17.83
2022-11-05T06:58:24.625Z,10.20
2022-11-05T06:59:26.634Z,12.85
2022-11-05T07:00:29.696Z,13.95
2022-11-05T07:01:32.225Z,13.38
2022-11-05T07:02:35.297Z,11.23
2022-11-05T07:03:38.700Z,12.48
2022-11-05T07:04:40.631Z,14.35
2022-11-05T07:05:46.204Z,10.00
2022-11-05T07:06:48.392Z,15.70
2022-11-05T07:07:51.279Z,9.07
2022-11-05T07:08:53.945Z,10.75
2022-11-05T07:09:56.843Z,14.27
2022-11-05T07:10:58.836Z,14.30
2022-11-05T07:12:01.745Z,12.00
2022-11-05T07:13:08.034Z,8.27
2022-11-05T07:14:11.721Z,12.45
2022-11-05T07:15:14.776Z,10.07
2022-11-05T07:16:17.643Z,13.38
2022-11-05T07:17:19.527Z,14.90
2022-11-05T07:18:22.427Z,13.10
2022-11-05T07:19:24.341Z,9.20
2022-11-05T07:20:33.276Z,12.55
2022-11-05T07:21:35.978Z,10.65
2022-11-05T07:22:38.948Z,7.30
2022-11-05T07:23:40.818Z,17.30
2022-11-05T07:24:47.059Z,10.70
2022-11-05T07:25:49.985Z,13.88
2022-11-05T07:26:51.899Z,9.85
2022-11-05T07:27:54.793Z,8.73
2022-11-05T07:28:58.110Z,12.60
2022-11-05T07:30:01.021Z,9.60
2022-11-05T07:31:02.917Z,13.20
2022-11-05T07:32:06.551Z,13.90
2022-11-05T07:33:09.609Z,8.88
2022-11-05T07:34:12.790Z,11.63
2022-11-05T07:35:14.783Z,13.15
2022-11-05T07:36:17.655Z,10.05
2022-11-05T07:37:20.546Z,9.63
2022-11-05T07:38:22.510Z,15.00
2022-11-05T07:39:25.537Z,11.57
2022-11-05T07:40:29.191Z,11.70
2022-11-05T07:41:32.149Z,12.30
2022-11-05T07:42:35.198Z,14.30
2022-11-05T07:43:38.075Z,12.68
2022-11-05T07:44:41.487Z,10.77
2022-11-05T07:45:46.649Z,13.27
2022-11-05T07:46:48.513Z,10.95
2022-11-05T07:47:53.815Z,14.23
2022-11-05T07:48:55.772Z,13.77
2022-11-05T07:49:58.635Z,11.55
2022-11-05T07:51:00.536Z,11.07
2022-11-05T07:52:03.401Z,10.45
2022-11-05T07:53:06.898Z,13.45
2022-11-05T07:54:09.958Z,10.82
2022-11-05T07:55:13.235Z,6.78
2022-11-05T07:56:16.458Z,12.27
2022-11-05T07:57:18.332Z,9.70
2022-11-05T07:58:21.183Z,10.38
2022-11-05T07:59:23.229Z,11.82
2022-11-05T08:00:28.317Z,12.80
2022-11-05T08:01:30.355Z,15.02
2022-11-05T08:02:33.487Z,10.27
2022-11-05T08:03:36.609Z,11.70
2022-11-05T08:04:40.265Z,13.82
2022-11-05T08:05:46.083Z,13.85
2022-11-05T08:06:48.052Z,10.63
2022-11-05T08:07:51.025Z,10.93
2022-11-05T08:08:53.947Z,13.25
2022-11-05T08:09:55.852Z,14.25
2022-11-05T08:11:03.955Z,10.85
2022-11-05T08:12:06.897Z,13.65
2022-11-05T08:13:11.287Z,16.67
2022-11-05T08:14:14.590Z,11.50
2022-11-05T08:15:16.536Z,10.27
2022-11-05T08:16:21.626Z,9.90
2022-11-05T08:17:23.511Z,11.05
2022-11-05T08:18:31.274Z,13.57
2022-11-05T08:19:33.181Z,11.25
2022-11-05T08:20:36.886Z,13.43
2022-11-05T08:21:39.754Z,11.20
2022-11-05T08:22:43.520Z,7.55
2022-11-05T08:23:46.397Z,10.82
2022-11-05T08:24:48.309Z,15.52
2022-11-05T08:25:51.206Z,11.55
2022-11-05T08:26:54.541Z,10.77
2022-11-05T08:27:58.041Z,8.98
2022-11-05T08:29:01.008Z,12.98
2022-11-05T08:30:03.134Z,10.68
2022-11-05T08:31:06.460Z,12.80
2022-11-05T08:32:09.914Z,9.50
2022-11-05T08:33:14.278Z,12.88
2022-11-05T08:34:16.558Z,11.75
2022-11-05T08:35:20.299Z,13.57
2022-11-05T08:36:22.244Z,12.85
2022-11-05T08:37:25.117Z,8.60
2022-11-05T08:38:27.057Z,10.82
2022-11-05T08:39:30.073Z,10.45
2022-11-05T08:40:33.358Z,12.43
2022-11-05T08:41:36.399Z,10.52
2022-11-05T08:42:38.379Z,15.35
2022-11-05T08:43:42.856Z,10.25
2022-11-05T08:44:45.142Z,10.88
2022-11-05T08:45:48.660Z,8.60
2022-11-05T08:46:51.890Z,8.88
2022-11-05T08:48:04.968Z,12.10
2022-11-05T08:49:07.840Z,8.05
2022-11-05T08:50:09.984Z,9.30
2022-11-05T08:51:12.885Z,9.13
2022-11-05T08:52:14.912Z,11.40
2022-11-05T08:53:18.153Z,8.20
2022-11-05T08:54:21.070Z,10.60
2022-11-05T08:55:23.699Z,13.48
2022-11-05T08:56:26.561Z,10.00
2022-11-05T08:57:28.477Z,7.20
2022-11-05T08:58:32.582Z,12.82
2022-11-05T08:59:34.449Z,8.80
2022-11-05T09:00:37.984Z,7.03
2022-11-05T09:01:40.993Z,12.77
2022-11-05T09:02:43.005Z,10.13
2022-11-05T09:03:47.259Z,7.72
2022-11-05T09:04:49.165Z,10.10
2022-11-05T09:05:52.211Z,10.32
2022-11-05T09:06:54.121Z,11.38
2022-11-05T09:08:00.834Z,7.82
2022-11-05T09:09:04.249Z,6.43
2022-11-05T09:10:06.903Z,7.97
2022-11-05T09:11:09.809Z,7.95
2022-11-05T09:12:13.063Z,12.00
2022-11-05T09:13:19.242Z,11.10
2022-11-05T09:14:23.256Z,5.65
2022-11-05T09:15:25.287Z,16.65
2022-11-05T09:16:28.326Z,7.18
2022-11-05T09:17:30.432Z,8.40
2022-11-05T09:18:34.587Z,8.90
2022-11-05T09:19:39.972Z,7.43
2022-11-05T09:20:44.404Z,5.72
2022-11-05T09:21:46.848Z,8.77
2022-11-05T09:22:51.143Z,10.32
2022-11-05T09:23:54.135Z,8.35
2022-11-05T09:24:56.062Z,9.80
2022-11-05T09:25:59.004Z,11.40
2022-11-05T09:27:00.932Z,12.07
2022-11-05T09:28:16.223Z,8.10
2022-11-05T09:29:20.070Z,7.50
2022-11-05T09:30:22.132Z,8.63
2022-11-05T09:31:25.027Z,9.45
2022-11-05T09:32:26.919Z,6.80
2022-11-05T09:33:29.839Z,5.95
2022-11-05T09:34:31.913Z,7.72
2022-11-05T09:35:36.173Z,10.32
2022-11-05T09:36:39.156Z,6.60
2022-11-05T09:37:41.046Z,8.20
2022-11-05T09:38:44.027Z,8.32
2022-11-05T09:39:47.127Z,11.40
2022-11-05T09:40:57.274Z,6.85
2022-11-05T09:42:05.577Z,9.13
2022-11-05T09:43:08.387Z,9.20
2022-11-05T09:44:15.042Z,9.27
2022-11-05T09:45:20.213Z,9.13
2022-11-05T09:46:25.413Z,7.57
2022-11-05T09:47:31.744Z,10.38
2022-11-05T09:48:36.383Z,7.15
2022-11-05T09:49:42.471Z,9.02
2022-11-05T09:50:47.621Z,13.48
2022-11-05T09:51:49.550Z,11.63
2022-11-05T09:52:52.638Z,10.13
2022-11-05T09:53:56.334Z,7.93
2022-11-05T09:54:58.604Z,7.45
2022-11-05T09:56:02.041Z,9.13
2022-11-05T09:57:07.999Z,9.23
2022-11-05T09:58:17.302Z,8.20
2022-11-05T09:59:25.541Z,7.03
2022-11-05T10:00:29.421Z,14.80
2022-11-05T10:01:36.424Z,9.25
2022-11-05T10:02:47.741Z,6.68
2022-11-05T10:03:55.083Z,9.93
2022-11-05T10:05:06.449Z,9.35
2022-11-05T10:06:20.182Z,9.50
2022-11-05T10:08:28.965Z,6.57
2022-11-05T10:09:37.837Z,10.90
2022-11-05T10:10:43.040Z,8.55
2022-11-05T10:11:50.956Z,7.57
2022-11-05T10:12:57.173Z,10.65
2022-11-05T10:14:07.261Z,10.52
2022-11-05T10:15:16.657Z,6.32
2022-11-05T10:16:26.346Z,9.23
2022-11-05T10:17:30.567Z,6.72
2022-11-05T10:18:37.377Z,5.65
2022-11-05T10:19:44.935Z,10.43
2022-11-05T10:20:46.898Z,7.70
2022-11-05T10:22:05.977Z,9.00
2022-11-05T10:23:12.713Z,8.75
2022-11-05T10:24:17.470Z,5.50
2022-11-05T10:25:21.830Z,8.70
2022-11-05T10:26:27.853Z,13.52
2022-11-05T10:27:32.395Z,9.60
2022-11-05T10:28:36.509Z,9.88
2022-11-05T10:29:38.548Z,6.95
2022-11-05T10:30:41.499Z,9.25
2022-11-05T10:31:43.536Z,7.13
2022-11-05T10:32:47.893Z,6.13
2022-11-05T10:33:53.090Z,9.18
2022-11-05T10:34:59.122Z,11.15
2022-11-05T10:36:04.889Z,6.82
2022-11-05T10:37:10.423Z,6.65
2022-11-05T10:38:14.622Z,5.00
2022-11-05T10:39:20.098Z,6.22
2022-11-05T10:40:40.522Z,8.95
2022-11-05T10:42:00.593Z,11.13
2022-11-05T10:43:07.277Z,3.83
2022-11-05T10:44:23.186Z,7.30
2022-11-05T10:45:36.039Z,6.97
2022-11-05T10:46:42.363Z,7.07
2022-11-05T10:47:53.706Z,10.52
2022-11-05T10:49:18.855Z,6.38
2022-11-05T10:50:25.457Z,8.57
2022-11-05T10:51:28.182Z,6.85
2022-11-05T10:52:36.831Z,9.02
2022-11-05T10:53:39.824Z,4.50
2022-11-05T10:54:42.806Z,9.95
2022-11-05T10:55:47.401Z,6.45
2022-11-05T10:56:50.370Z,5.65
2022-11-05T10:57:53.446Z,7.45
2022-11-05T10:58:58.626Z,9.15
2022-11-05T11:00:28.393Z,6.93
2022-11-05T11:01:32.506Z,7.43
2022-11-05T11:02:35.738Z,6.30
2022-11-05T11:03:45.948Z,9.07
2022-11-05T11:04:53.047Z,6.25
2022-11-05T11:06:00.389Z,10.25
2022-11-05T11:07:03.637Z,5.70
2022-11-05T11:08:26.004Z,5.32
2022-11-05T11:09:31.683Z,6.82
2022-11-05T11:10:49.244Z,7.03
2022-11-05T11:11:59.366Z,6.60
2022-11-05T11:13:03.135Z,12.38
2022-11-05T11:14:18.469Z,6.85
2022-11-05T11:15:29.441Z,6.95
2022-11-05T11:16:36.884Z,6.85
2022-11-05T11:17:39.763Z,8.43
2022-11-05T11:18:43.523Z,6.30
2022-11-05T11:19:47.145Z,6.78
2022-11-05T11:20:49.095Z,4.75
2022-11-05T11:22:13.646Z,5.55
2022-11-05T11:23:18.102Z,6.82
2022-11-05T11:24:23.275Z,6.40
2022-11-05T11:25:28.507Z,5.13
2022-11-05T11:26:34.057Z,9.77
2022-11-05T11:27:37.805Z,7.22
2022-11-05T11:28:44.869Z,3.92
2022-11-05T11:29:51.232Z,12.40
2022-11-05T11:31:06.791Z,7.90
2022-11-05T11:32:14.076Z,8.88
2022-11-05T11:33:22.718Z,5.85
2022-11-05T11:34:28.818Z,7.07
2022-11-05T11:35:32.069Z,9.90
2022-11-05T11:36:39.532Z,9.40
2022-11-05T11:37:42.188Z,6.85
2022-11-05T11:38:47.170Z,8.25
2022-11-05T11:39:58.158Z,7.50
2022-11-05T11:41:04.807Z,7.50
2022-11-05T11:42:16.722Z,5.93
2022-11-05T11:43:29.082Z,5.10
2022-11-05T11:44:34.941Z,7.82
2022-11-05T11:45:45.155Z,5.85
2022-11-05T11:46:51.141Z,7.15
2022-11-05T11:47:56.110Z,7.10
2022-11-05T11:49:00.060Z,6.70
2022-11-05T11:50:02.219Z,5.05
2022-11-05T11:51:19.249Z,8.27
2022-11-05T11:52:27.969Z,7.05
2022-11-05T11:53:35.635Z,7.63
2022-11-05T11:54:39.948Z,7.80
2022-11-05T11:55:58.167Z,9.05
2022-11-05T11:57:01.083Z,7.75
2022-11-05T11:58:07.059Z,11.30
2022-11-05T11:59:27.271Z,10.90
2022-11-05T12:00:47.638Z,6.45
2022-11-05T12:02:25.990Z,8.75
2022-11-05T12:03:35.595Z,6.75
2022-11-05T12:05:13.456Z,6.35
2022-11-05T12:06:30.184Z,8.20
2022-11-05T12:07:45.994Z,7.90
2022-11-05T12:09:03.605Z,9.95
2022-11-05T12:10:23.059Z,5.82
2022-11-05T12:11:31.084Z,6.47
2022-11-05T12:12:41.248Z,5.85
2022-11-05T12:14:04.332Z,8.75
2022-11-05T12:15:27.141Z,8.10
2022-11-05T12:16:52.135Z,6.15
2022-11-05T12:18:01.480Z,10.05
2022-11-05T12:19:17.393Z,9.32
2022-11-05T12:20:35.006Z,6.90
2022-11-05T12:21:52.598Z,7.85
2022-11-05T12:23:20.186Z,9.68
2022-11-05T12:25:03.504Z,8.20
2022-11-05T12:26:16.995Z,8.73
2022-11-05T12:27:34.862Z,7.53
2022-11-05T12:29:17.404Z,9.20
2022-11-05T12:30:19.735Z,12.32
2022-11-05T12:31:34.057Z,5.90
2022-11-05T12:32:58.518Z,6.15
2022-11-05T12:34:18.331Z,8.18
2022-11-05T12:35:35.407Z,6.10
2022-11-05T12:36:52.365Z,6.22
2022-11-05T12:38:03.364Z,8.95
2022-11-05T12:39:23.409Z,7.95
2022-11-05T12:40:43.997Z,5.30
2022-11-05T12:41:55.273Z,9.35
2022-11-05T12:43:11.967Z,7.93
2022-11-05T12:44:28.818Z,5.85
2022-11-05T12:45:44.914Z,9.68
2022-11-05T12:47:06.413Z,6.50
2022-11-05T12:48:29.259Z,8.50
2022-11-05T12:49:48.874Z,7.55
2022-11-05T12:50:55.677Z,6.25
2022-11-05T12:52:16.073Z,6.78
2022-11-05T12:53:41.614Z,7.78
2022-11-05T12:54:58.439Z,6.53
2022-11-05T12:56:06.762Z,5.88
2022-11-05T12:57:12.644Z,7.75
2022-11-05T12:58:22.681Z,4.80
2022-11-05T12:59:32.253Z,4.82
2022-11-05T13:00:37.607Z,7.53
2022-11-05T13:01:45.408Z,14.63
2022-11-05T13:03:22.109Z,6.80
2022-11-05T13:04:35.274Z,4.63
2022-11-05T13:05:40.350Z,7.47
2022-11-05T13:06:49.577Z,6.13
2022-11-05T13:07:56.567Z,6.47
2022-11-05T13:09:05.313Z,6.82
2022-11-05T13:10:17.951Z,8.35
2022-11-05T13:11:25.026Z,6.65
2022-11-05T13:12:34.591Z,5.75
2022-11-05T13:13:39.757Z,6.63
2022-11-05T13:14:46.646Z,7.50
2022-11-05T13:15:53.120Z,8.25
2022-11-05T13:17:00.651Z,5.80
2022-11-05T13:18:06.623Z,8.50
2022-11-05T13:19:18.112Z,6.40
2022-11-05T13:20:22.709Z,5.10
2022-11-05T13:21:29.029Z,9.07
2022-11-05T13:22:37.355Z,6.55
2022-11-05T13:23:45.284Z,5.78
2022-11-05T13:24:50.841Z,4.97
2022-11-05T13:26:00.559Z,5.68
2022-11-05T13:27:16.564Z,6.47
2022-11-05T13:28:33.827Z,8.98
2022-11-05T13:29:46.418Z,7.20
2022-11-05T13:30:51.732Z,7.30
2022-11-05T13:31:59.631Z,5.45
2022-11-05T13:33:06.225Z,6.75
2022-11-05T13:34:12.384Z,8.32
2022-11-05T13:35:19.104Z,7.72
2022-11-05T13:36:43.939Z,5.00
2022-11-05T13:38:14.999Z,8.07
2022-11-05T13:39:24.614Z,11.63
2022-11-05T13:40:38.647Z,6.47
2022-11-05T13:41:54.975Z,5.80
2022-11-05T13:43:12.405Z,7.82
2022-11-05T13:44:47.888Z,8.30
2022-11-05T13:46:08.411Z,10.45
2022-11-05T13:47:50.475Z,9.25
2022-11-05T13:49:09.745Z,5.90
2022-11-05T13:51:05.715Z,4.97
2022-11-05T13:52:27.020Z,12.98
2022-11-05T13:53:49.014Z,13.32
2022-11-05T13:55:20.074Z,9.05
2022-11-05T13:57:55.472Z,7.95
2022-11-05T13:59:33.514Z,6.78
2022-11-05T14:00:42.970Z,6.57
2022-11-05T14:01:55.096Z,7.32
2022-11-05T14:03:02.423Z,6.28
2022-11-05T14:04:06.136Z,6.80
2022-11-05T14:05:23.148Z,6.65
2022-11-05T14:06:28.647Z,7.40
2022-11-05T14:07:34.642Z,9.18
2022-11-05T14:08:41.314Z,6.22
2022-11-05T14:09:45.073Z,11.00
2022-11-05T14:10:59.949Z,10.48
2022-11-05T14:12:04.534Z,4.70
2022-11-05T14:13:20.545Z,6.13
2022-11-05T14:14:25.435Z,8.10
2022-11-05T14:15:30.427Z,7.25
2022-11-05T14:16:51.749Z,8.73
2022-11-05T14:17:56.576Z,9.38
2022-11-05T14:19:31.179Z,8.30
2022-11-05T14:20:45.854Z,6.88
2022-11-05T14:21:51.347Z,7.85
2022-11-05T14:22:53.541Z,7.03
2022-11-05T14:23:58.531Z,8.27
2022-11-05T14:25:03.026Z,8.27
2022-11-05T14:26:17.505Z,7.75
2022-11-05T14:27:44.631Z,9.68
2022-11-05T14:28:51.800Z,6.43
2022-11-05T14:29:54.816Z,8.90
2022-11-05T14:30:56.767Z,9.32
2022-11-05T14:32:09.611Z,9.65
2022-11-05T14:33:18.301Z,6.50
2022-11-05T14:34:43.682Z,7.47
2022-11-05T14:35:45.637Z,7.38
2022-11-05T14:37:15.048Z,8.60
2022-11-05T14:38:22.072Z,9.52
2022-11-05T14:39:27.779Z,6.45
2022-11-05T14:40:36.227Z,6.82
2022-11-05T14:41:52.450Z,7.45
2022-11-05T14:42:57.605Z,8.48
2022-11-05T14:44:06.475Z,6.75
2022-11-05T14:45:27.101Z,4.57
2022-11-05T14:46:41.009Z,10.13
2022-11-05T14:47:54.422Z,8.82